createdAt,value
2023-05-22T04:31:33.027Z,20.4822
2023-05-22T04:32:35.106Z,20.6102
2023-05-22T04:33:37.133Z,20.8715
2023-05-22T04:34:39.160Z,21.1019
2023-05-22T04:35:41.215Z,21.3936
2023-05-22T04:36:43.239Z,21.6526
2023-05-22T04:37:45.315Z,21.8607
2023-05-22T04:38:47.357Z,22.0628
2023-05-22T04:39:49.387Z,22.2956
2023-05-22T04:40:51.440Z,22.4449
2023-05-22T04:41:53.488Z,22.6142
2023-05-22T04:42:55.501Z,22.7128
2023-05-22T04:43:57.553Z,22.8816
2023-05-22T04:44:59.618Z,22.9506
2023-05-22T04:46:01.651Z,23.0231
2023-05-22T04:47:05.993Z,23.1302
2023-05-22T04:48:05.754Z,23.1834
2023-05-22T04:49:07.759Z,23.2433
2023-05-22T04:50:09.812Z,23.2427
2023-05-22T04:51:11.847Z,23.3121
2023-05-22T04:52:13.887Z,23.3606
2023-05-22T04:53:15.936Z,23.4171
2023-05-22T04:54:17.993Z,23.4543
2023-05-22T04:55:20.034Z,23.4851
2023-05-22T04:56:34.735Z,23.5531
2023-05-22T04:57:24.122Z,23.5738
2023-05-22T04:58:26.187Z,23.6408
2023-05-22T04:59:28.235Z,23.6846
2023-05-22T05:00:30.286Z,23.7566
2023-05-22T05:01:33.440Z,23.7856
2023-05-22T05:02:34.402Z,23.8117
2023-05-22T05:03:36.460Z,23.7823
2023-05-22T05:04:38.429Z,23.8088
2023-05-22T05:05:40.505Z,23.8563
2023-05-22T05:06:42.532Z,23.8622
2023-05-22T05:07:44.588Z,23.8195
2023-05-22T05:08:46.656Z,23.8546
2023-05-22T05:09:48.683Z,23.8719
2023-05-22T05:10:50.715Z,23.8756
2023-05-22T05:11:52.763Z,23.8834
2023-05-22T05:12:54.811Z,23.8844
2023-05-22T05:13:56.857Z,23.9200
2023-05-22T05:14:58.898Z,23.9370
2023-05-22T05:16:00.936Z,23.9460
2023-05-22T05:17:03.026Z,23.9740
2023-05-22T05:18:05.112Z,23.9442
2023-05-22T05:19:07.104Z,23.9091
2023-05-22T05:20:09.117Z,23.9109
2023-05-22T05:21:11.131Z,23.9286
2023-05-22T05:22:13.188Z,23.9442
2023-05-22T05:23:15.226Z,23.9393
2023-05-22T05:24:17.287Z,23.9440
2023-05-22T05:25:19.318Z,23.9553
2023-05-22T05:26:21.383Z,23.9631
2023-05-22T05:27:23.419Z,23.9947
2023-05-22T05:28:25.473Z,24.0245
2023-05-22T05:29:27.508Z,24.0356
2023-05-22T05:30:29.560Z,23.9914
2023-05-22T05:31:31.638Z,23.9937
2023-05-22T05:32:33.622Z,24.0093
2023-05-22T05:33:35.665Z,23.9937
2023-05-22T05:34:37.741Z,23.9994
2023-05-22T05:35:42.721Z,24.0235
2023-05-22T05:36:41.798Z,24.1052
2023-05-22T05:37:43.873Z,24.1204
2023-05-22T05:38:45.930Z,24.0800
2023-05-22T05:39:47.936Z,24.0952
2023-05-22T05:40:49.987Z,24.0642
2023-05-22T05:41:52.140Z,24.0664
2023-05-22T05:42:54.089Z,24.0668
2023-05-22T05:43:56.166Z,24.0311
2023-05-22T05:44:58.228Z,24.0264
2023-05-22T05:46:00.267Z,24.0364
2023-05-22T05:47:02.263Z,24.0298
2023-05-22T05:48:04.409Z,24.0414
2023-05-22T05:49:06.385Z,24.0370
2023-05-22T05:50:08.429Z,24.0151
2023-05-22T05:51:10.452Z,24.0083
2023-05-22T05:52:12.492Z,23.9806
2023-05-22T05:53:14.581Z,24.0011
2023-05-22T05:54:16.601Z,24.0227
2023-05-22T05:55:18.693Z,24.0161
2023-05-22T05:56:20.643Z,24.1603
2023-05-22T05:57:22.710Z,24.2118
2023-05-22T05:58:24.780Z,24.2780
2023-05-22T05:59:26.823Z,24.2577
2023-05-22T06:00:28.829Z,24.3343
2023-05-22T06:01:31.032Z,24.4068
2023-05-22T06:02:33.013Z,24.3493
2023-05-22T06:03:35.038Z,24.2603
2023-05-22T06:04:36.992Z,24.0672
2023-05-22T06:05:39.054Z,24.1141
2023-05-22T06:06:41.070Z,24.1632
2023-05-22T06:07:43.101Z,24.0853
2023-05-22T06:08:45.283Z,24.0962
2023-05-22T06:09:47.220Z,24.1015
2023-05-22T06:10:49.244Z,24.1011
2023-05-22T06:11:51.285Z,24.0880
2023-05-22T06:12:53.330Z,24.1991
2023-05-22T06:13:55.408Z,24.2597
2023-05-22T06:14:57.409Z,24.2439
2023-05-22T06:16:01.682Z,24.2893
2023-05-22T06:17:01.538Z,24.2844
2023-05-22T06:18:03.589Z,24.2242
2023-05-22T06:19:05.636Z,24.0927
2023-05-22T06:20:07.687Z,23.8331
2023-05-22T06:21:09.686Z,23.9054
2023-05-22T06:22:12.061Z,23.9549
2023-05-22T06:23:13.798Z,23.9452
2023-05-22T06:24:15.874Z,23.9524
2023-05-22T06:25:17.897Z,24.0648
2023-05-22T06:26:19.953Z,24.0350
2023-05-22T06:27:21.969Z,23.9715
2023-05-22T06:28:24.071Z,23.9567
2023-05-22T06:29:26.616Z,23.9444
2023-05-22T06:30:38.996Z,23.9335
2023-05-22T06:31:30.137Z,23.9136
2023-05-22T06:32:32.277Z,23.9512
2023-05-22T06:33:34.364Z,23.9271
2023-05-22T06:34:36.271Z,23.8982
2023-05-22T06:35:38.384Z,23.9136
2023-05-22T06:36:40.323Z,23.9009
2023-05-22T06:37:42.450Z,23.9423
2023-05-22T06:38:44.416Z,23.9949
2023-05-22T06:39:46.544Z,23.9690
2023-05-22T06:40:48.576Z,23.9781
2023-05-22T06:41:50.577Z,24.0541
2023-05-22T06:42:52.587Z,24.1159
2023-05-22T06:43:54.638Z,24.1638
2023-05-22T06:44:56.699Z,24.2196
2023-05-22T06:45:58.812Z,24.2312
2023-05-22T06:47:00.805Z,24.1909
2023-05-22T06:48:02.833Z,24.1486
2023-05-22T06:49:04.953Z,24.1593
2023-05-22T06:50:06.901Z,24.0602
2023-05-22T06:51:09.007Z,23.9259
2023-05-22T06:52:11.004Z,23.9206
2023-05-22T06:53:13.066Z,24.0800
2023-05-22T06:54:15.106Z,24.1235
2023-05-22T06:55:17.146Z,24.0664
2023-05-22T06:56:19.178Z,24.0806
2023-05-22T06:57:21.228Z,24.1658
2023-05-22T06:58:23.249Z,24.1946
2023-05-22T06:59:25.376Z,24.1853
2023-05-22T07:00:27.369Z,24.2369
2023-05-22T07:01:29.492Z,24.2246
2023-05-22T07:02:31.551Z,24.1132
2023-05-22T07:03:33.491Z,24.0243
2023-05-22T07:04:35.529Z,24.0993
2023-05-22T07:05:37.643Z,24.1038
2023-05-22T07:06:39.668Z,24.0769
2023-05-22T07:07:41.652Z,24.0722
2023-05-22T07:08:43.696Z,24.0609
2023-05-22T07:09:45.866Z,24.0713
2023-05-22T07:10:47.806Z,24.0678
2023-05-22T07:11:49.854Z,23.9479
2023-05-22T07:12:51.884Z,23.8633
2023-05-22T07:13:53.925Z,23.8312
2023-05-22T07:14:55.985Z,23.6511
2023-05-22T07:15:58.213Z,23.4794
2023-05-22T07:17:00.162Z,23.5095
2023-05-22T07:18:02.180Z,23.4720
2023-05-22T07:19:04.176Z,23.4559
2023-05-22T07:20:06.184Z,23.4783
2023-05-22T07:21:08.300Z,23.5755
2023-05-22T07:22:10.405Z,23.5975
2023-05-22T07:23:12.311Z,23.6435
2023-05-22T07:24:14.377Z,23.6618
2023-05-22T07:25:16.461Z,23.6767
2023-05-22T07:26:18.442Z,23.7400
2023-05-22T07:27:20.534Z,23.7897
2023-05-22T07:28:22.536Z,23.8020
2023-05-22T07:29:24.604Z,23.8372
2023-05-22T07:30:26.674Z,23.8253
2023-05-22T07:31:28.806Z,23.7675
2023-05-22T07:32:30.763Z,23.7423
2023-05-22T07:33:32.828Z,23.7862
2023-05-22T07:34:34.817Z,23.8686
2023-05-22T07:35:36.906Z,23.9271
2023-05-22T07:36:38.940Z,23.9319
2023-05-22T07:37:40.948Z,23.9760
2023-05-22T07:38:42.993Z,23.9693
2023-05-22T07:39:45.093Z,23.9255
2023-05-22T07:40:47.469Z,24.0027
2023-05-22T07:41:49.186Z,23.9884
2023-05-22T07:42:51.170Z,23.9465
2023-05-22T07:43:53.296Z,23.9596
2023-05-22T07:44:55.293Z,23.9481
2023-05-22T07:45:57.400Z,23.9349
2023-05-22T07:46:59.388Z,23.9467
2023-05-22T07:48:01.439Z,24.1679
2023-05-22T07:49:03.483Z,24.1728
2023-05-22T07:50:05.488Z,24.1504
2023-05-22T07:51:07.569Z,24.1188
2023-05-22T07:52:09.618Z,24.1149
2023-05-22T07:53:11.671Z,24.1623
2023-05-22T07:54:13.688Z,24.1821
2023-05-22T07:55:15.722Z,24.2102
2023-05-22T07:56:18.043Z,24.2348
2023-05-22T07:57:19.890Z,24.2482
2023-05-22T07:58:21.880Z,24.3026
2023-05-22T07:59:23.940Z,24.3022
2023-05-22T08:00:26.009Z,24.3252
2023-05-22T08:01:28.041Z,24.3704
2023-05-22T08:02:30.174Z,24.3460
2023-05-22T08:03:32.549Z,24.3696
2023-05-22T08:04:34.230Z,24.3250
2023-05-22T08:05:36.209Z,24.3803
2023-05-22T08:06:38.367Z,24.4474
2023-05-22T08:07:40.301Z,24.4715
2023-05-22T08:08:42.436Z,24.3969
2023-05-22T08:09:44.395Z,24.3846
2023-05-22T08:10:58.213Z,24.3189
2023-05-22T08:11:48.504Z,24.2379
2023-05-22T08:12:50.529Z,24.1410
2023-05-22T08:13:52.697Z,24.0915
2023-05-22T08:14:54.634Z,24.1917
2023-05-22T08:16:00.382Z,24.2334
2023-05-22T08:16:58.758Z,24.1371
2023-05-22T08:18:00.813Z,24.0602
2023-05-22T08:19:02.993Z,24.0335
2023-05-22T08:20:04.915Z,23.9446
2023-05-22T08:21:06.870Z,23.9818
2023-05-22T08:22:08.900Z,24.0132
2023-05-22T08:23:10.972Z,24.0722
2023-05-22T08:24:14.039Z,24.1017
2023-05-22T08:25:15.045Z,24.1013
2023-05-22T08:26:17.115Z,24.0633
2023-05-22T08:27:19.164Z,23.9729
2023-05-22T08:28:21.202Z,23.9641
2023-05-22T08:29:23.361Z,23.9241
2023-05-22T08:30:25.506Z,23.9093
2023-05-22T08:31:27.341Z,23.9331
2023-05-22T08:32:31.159Z,23.9654
2023-05-22T08:33:31.428Z,24.0490
2023-05-22T08:34:33.554Z,24.0650
2023-05-22T08:35:35.591Z,24.0796
2023-05-22T08:36:37.686Z,23.9489
2023-05-22T08:37:39.662Z,23.9214
2023-05-22T08:38:41.868Z,23.9458
2023-05-22T08:39:43.892Z,24.0389
2023-05-22T08:40:46.454Z,24.0181
2023-05-22T08:41:47.954Z,24.1120
2023-05-22T08:42:50.022Z,24.1293
2023-05-22T08:43:51.951Z,24.1486
2023-05-22T08:44:54.182Z,24.3084
2023-05-22T08:45:56.963Z,24.4296
2023-05-22T08:46:58.151Z,24.4522
2023-05-22T08:48:00.226Z,24.4347
2023-05-22T08:49:02.178Z,24.4228
2023-05-22T08:50:04.256Z,24.3864
2023-05-22T08:51:06.303Z,24.4183
2023-05-22T08:52:08.323Z,24.4501
2023-05-22T08:53:10.412Z,24.5504
2023-05-22T08:54:12.431Z,24.6114
2023-05-22T08:55:14.606Z,24.6570
2023-05-22T08:56:16.531Z,24.6633
2023-05-22T08:57:18.542Z,24.6929
2023-05-22T08:58:20.586Z,24.7013
2023-05-22T08:59:22.646Z,24.7514
2023-05-22T09:00:24.723Z,24.7703
2023-05-22T09:01:27.080Z,24.7991
2023-05-22T09:02:28.810Z,24.7942
2023-05-22T09:03:30.879Z,24.8316
2023-05-22T09:04:32.905Z,24.7724
2023-05-22T09:05:34.945Z,24.7371
2023-05-22T09:06:36.982Z,24.8227
2023-05-22T09:07:39.026Z,24.8252
2023-05-22T09:08:41.116Z,24.8174
2023-05-22T09:09:43.219Z,24.8211
2023-05-22T09:10:45.186Z,24.9008
2023-05-22T09:11:47.225Z,24.8632
2023-05-22T09:12:49.273Z,24.8550
2023-05-22T09:13:51.365Z,24.9415
2023-05-22T09:14:55.243Z,24.8330
2023-05-22T09:15:55.448Z,24.8620
2023-05-22T09:16:57.491Z,24.8636
2023-05-22T09:17:59.549Z,24.8207
2023-05-22T09:19:01.592Z,24.8437
2023-05-22T09:20:03.642Z,24.7523
2023-05-22T09:21:09.043Z,24.6972
2023-05-22T09:22:07.733Z,24.6839
2023-05-22T09:23:09.773Z,24.6465
2023-05-22T09:24:11.874Z,24.6179
2023-05-22T09:25:13.870Z,24.6001
2023-05-22T09:26:15.933Z,24.5304
2023-05-22T09:27:17.950Z,24.4986
2023-05-22T09:28:19.992Z,24.4639
2023-05-22T09:29:22.066Z,24.4481
2023-05-22T09:30:24.274Z,24.4573
2023-05-22T09:31:26.253Z,24.4380
2023-05-22T09:32:28.250Z,24.4230
2023-05-22T09:33:30.297Z,24.4220
2023-05-22T09:34:32.345Z,24.4417
2023-05-22T09:35:34.399Z,24.4514
2023-05-22T09:36:36.393Z,24.4818
2023-05-22T09:37:38.545Z,24.4548
2023-05-22T09:38:40.557Z,24.4719
2023-05-22T09:39:42.598Z,24.4629
2023-05-22T09:40:44.627Z,24.4234
2023-05-22T09:41:46.691Z,24.4325
2023-05-22T09:42:48.762Z,24.4544
2023-05-22T09:43:50.791Z,24.4606
2023-05-22T09:44:52.975Z,24.4509
2023-05-22T09:45:55.097Z,24.4672
2023-05-22T09:46:56.949Z,24.4721
2023-05-22T09:47:58.960Z,24.4861
2023-05-22T09:49:01.049Z,24.4762
2023-05-22T09:50:03.075Z,24.5111
2023-05-22T09:51:05.136Z,24.5243
2023-05-22T09:52:07.252Z,24.5415
2023-05-22T09:53:09.295Z,24.6103
2023-05-22T09:54:11.327Z,24.6483
2023-05-22T09:55:13.333Z,24.6561
2023-05-22T09:56:19.133Z,24.6989
2023-05-22T09:57:17.487Z,24.7048
2023-05-22T09:58:19.462Z,24.7071
2023-05-22T09:59:21.587Z,24.7418
2023-05-22T10:00:23.552Z,24.7496
2023-05-22T10:01:25.623Z,24.8215
2023-05-22T10:02:27.734Z,24.8231
2023-05-22T10:03:29.685Z,24.8831
2023-05-22T10:04:31.804Z,24.9322
2023-05-22T10:05:33.870Z,25.0152
2023-05-22T10:06:35.891Z,25.1113
2023-05-22T10:07:38.012Z,25.1623
2023-05-22T10:08:39.953Z,25.1997
2023-05-22T10:09:41.956Z,25.2839
2023-05-22T10:10:44.052Z,25.3741
2023-05-22T10:11:46.090Z,25.4082
2023-05-22T10:12:48.170Z,25.4285
2023-05-22T10:13:50.227Z,25.4457
2023-05-22T10:14:52.206Z,25.4899
2023-05-22T10:15:54.291Z,25.6166
2023-05-22T10:16:56.371Z,25.7543
2023-05-22T10:17:58.437Z,25.7914
2023-05-22T10:19:00.393Z,25.8890
2023-05-22T10:20:02.449Z,25.9282
2023-05-22T10:21:04.540Z,25.9196
2023-05-22T10:22:06.577Z,25.7148
2023-05-22T10:23:08.631Z,25.6218
2023-05-22T10:24:10.685Z,25.6809
2023-05-22T10:25:12.711Z,25.7226
2023-05-22T10:26:14.772Z,25.7845
2023-05-22T10:27:16.779Z,25.7161
2023-05-22T10:28:18.874Z,25.5869
2023-05-22T10:29:20.905Z,25.6594
2023-05-22T10:30:22.930Z,25.6929
2023-05-22T10:31:25.092Z,25.7159
2023-05-22T10:32:27.066Z,25.6881
2023-05-22T10:33:29.124Z,25.6719
2023-05-22T10:34:31.194Z,25.5645
2023-05-22T10:35:33.165Z,25.5006
2023-05-22T10:36:35.294Z,25.4842
2023-05-22T10:37:37.300Z,25.5751
2023-05-22T10:38:39.335Z,25.6772
2023-05-22T10:39:41.380Z,25.8658
2023-05-22T10:40:43.514Z,25.9572
2023-05-22T10:41:45.551Z,25.9851
2023-05-22T10:42:47.507Z,26.0416
2023-05-22T10:43:49.601Z,26.1070
2023-05-22T10:44:51.608Z,26.2068
2023-05-22T10:45:53.764Z,26.2160
2023-05-22T10:46:55.770Z,26.2401
2023-05-22T10:47:57.753Z,26.2140
2023-05-22T10:48:59.825Z,26.1667
2023-05-22T10:50:02.039Z,26.2320
2023-05-22T10:51:03.921Z,26.2247
2023-05-22T10:52:05.964Z,26.2614
2023-05-22T10:53:08.027Z,26.3175
2023-05-22T10:54:10.043Z,26.3641
2023-05-22T10:55:12.091Z,26.3828
2023-05-22T10:56:14.175Z,26.3539
2023-05-22T10:57:16.212Z,26.2900
2023-05-22T10:58:18.257Z,26.3947
2023-05-22T10:59:20.385Z,26.4603
2023-05-22T11:00:22.360Z,26.4512
2023-05-22T11:01:24.409Z,26.5186
2023-05-22T11:02:26.618Z,26.5558
2023-05-22T11:03:28.537Z,26.6139
2023-05-22T11:04:30.648Z,26.5954
2023-05-22T11:05:32.602Z,26.5537
2023-05-22T11:06:34.632Z,26.6174
2023-05-22T11:07:36.692Z,26.5802
2023-05-22T11:08:38.764Z,26.6881
2023-05-22T11:09:40.792Z,26.7316
2023-05-22T11:10:42.812Z,26.8953
2023-05-22T11:11:44.884Z,26.9115
2023-05-22T11:12:46.924Z,26.9058
2023-05-22T11:13:48.995Z,26.8924
2023-05-22T11:14:51.131Z,26.8814
2023-05-22T11:15:53.116Z,26.9442
2023-05-22T11:16:55.167Z,26.9650
2023-05-22T11:17:57.292Z,26.9760
2023-05-22T11:19:00.598Z,26.9526
2023-05-22T11:20:01.527Z,26.9723
2023-05-22T11:21:03.328Z,26.9294
2023-05-22T11:22:05.477Z,27.0627
2023-05-22T11:23:07.447Z,27.0348
2023-05-22T11:24:09.493Z,27.0652
2023-05-22T11:25:11.609Z,27.0730
2023-05-22T11:26:13.588Z,27.0383
2023-05-22T11:27:15.697Z,27.0147
2023-05-22T11:28:17.705Z,27.0714
2023-05-22T11:29:19.760Z,27.0944
2023-05-22T11:30:21.823Z,27.0081
2023-05-22T11:31:23.883Z,27.0258
2023-05-22T11:32:25.901Z,26.9847
2023-05-22T11:33:27.948Z,26.9836
2023-05-22T11:34:30.006Z,26.9865
2023-05-22T11:35:32.025Z,26.9378
2023-05-22T11:36:34.060Z,26.9317
2023-05-22T11:37:36.138Z,26.9099
2023-05-22T11:38:38.179Z,26.7472
2023-05-22T11:39:40.234Z,26.7092
2023-05-22T11:40:42.485Z,26.6677
2023-05-22T11:41:44.321Z,26.7320
2023-05-22T11:42:46.372Z,26.7476
2023-05-22T11:43:48.424Z,26.7337
2023-05-22T11:44:50.469Z,26.7263
2023-05-22T11:45:52.555Z,26.7205
2023-05-22T11:46:54.618Z,26.7616
2023-05-22T11:47:56.779Z,26.7372
2023-05-22T11:48:58.679Z,26.6860
2023-05-22T11:50:00.733Z,26.7606
2023-05-22T11:51:02.788Z,26.7579
2023-05-22T11:52:04.888Z,26.8162
2023-05-22T11:53:06.869Z,26.8401
2023-05-22T11:54:08.891Z,26.8431
2023-05-22T11:55:10.988Z,26.8544
2023-05-22T11:56:13.013Z,26.9167
2023-05-22T11:57:15.037Z,26.9594
2023-05-22T11:58:17.165Z,26.9298
2023-05-22T11:59:19.128Z,26.8844
2023-05-22T12:00:21.172Z,26.9530
2023-05-22T12:01:23.278Z,27.0087
2023-05-22T12:02:25.341Z,27.0449
2023-05-22T12:03:27.386Z,27.0666
2023-05-22T12:04:29.400Z,27.0863
2023-05-22T12:05:31.383Z,27.1196
2023-05-22T12:06:33.581Z,27.1332
2023-05-22T12:07:35.528Z,27.1699
2023-05-22T12:08:37.556Z,27.1763
2023-05-22T12:09:39.615Z,27.2351
2023-05-22T12:10:41.975Z,27.2661
2023-05-22T12:11:43.680Z,27.2897
2023-05-22T12:12:45.760Z,27.2768
2023-05-22T12:13:47.777Z,27.2338
2023-05-22T12:14:49.867Z,27.2082
2023-05-22T12:15:51.904Z,27.1812
2023-05-22T12:16:54.074Z,27.1307
2023-05-22T12:17:56.085Z,27.1570
2023-05-22T12:18:58.075Z,27.1734
2023-05-22T12:20:00.092Z,27.1677
2023-05-22T12:21:02.149Z,27.1356
2023-05-22T12:22:04.240Z,27.1471
2023-05-22T12:23:06.250Z,27.1734
2023-05-22T12:24:08.298Z,27.3476
2023-05-22T12:25:10.360Z,27.3049
2023-05-22T12:26:12.431Z,27.2437
2023-05-22T12:27:14.457Z,27.3458
2023-05-22T12:28:16.517Z,27.3359
2023-05-22T12:29:18.573Z,27.3355
2023-05-22T12:30:20.593Z,27.2825
2023-05-22T12:31:22.641Z,27.2992
2023-05-22T12:32:24.790Z,27.3528
2023-05-22T12:33:26.736Z,27.3815
2023-05-22T12:34:28.777Z,27.3957
2023-05-22T12:35:30.884Z,27.4275
2023-05-22T12:36:32.914Z,27.4565
2023-05-22T12:37:34.963Z,27.5005
2023-05-22T12:38:37.069Z,27.5183
2023-05-22T12:39:39.166Z,27.5216
2023-05-22T12:40:41.362Z,27.4918
2023-05-22T12:41:43.228Z,27.4974
2023-05-22T12:42:45.287Z,27.4931
2023-05-22T12:43:47.359Z,27.4318
2023-05-22T12:44:49.381Z,27.3936
2023-05-22T12:45:51.514Z,27.4121
2023-05-22T12:46:53.667Z,27.2965
2023-05-22T12:47:55.630Z,27.2077
2023-05-22T12:48:57.619Z,27.1580
2023-05-22T12:49:59.624Z,27.0944
2023-05-22T12:51:01.699Z,27.0564
2023-05-22T12:52:03.837Z,26.9781
2023-05-22T12:53:05.841Z,26.8873
2023-05-22T12:54:07.865Z,26.8653
2023-05-22T12:55:09.892Z,26.8701
2023-05-22T12:56:11.971Z,26.8238
2023-05-22T12:57:14.045Z,26.7955
2023-05-22T12:58:16.082Z,26.8025
2023-05-22T12:59:19.466Z,26.6992
2023-05-22T13:00:20.402Z,26.7573
2023-05-22T13:01:22.243Z,26.7417
2023-05-22T13:02:24.281Z,26.7057
2023-05-22T13:03:26.398Z,26.6938
2023-05-22T13:04:28.373Z,26.7556
2023-05-22T13:05:30.490Z,26.7700
2023-05-22T13:06:32.479Z,26.7577
2023-05-22T13:07:34.659Z,26.7505
2023-05-22T13:08:36.662Z,26.8006
2023-05-22T13:09:38.641Z,26.8581
2023-05-22T13:10:40.686Z,26.8637
2023-05-22T13:11:42.810Z,26.9138
2023-05-22T13:12:44.816Z,26.8961
2023-05-22T13:13:46.847Z,26.8943
2023-05-22T13:14:48.891Z,26.8978
2023-05-22T13:15:50.977Z,26.9247
2023-05-22T13:16:53.015Z,26.9723
2023-05-22T13:17:55.117Z,26.9746
2023-05-22T13:18:57.310Z,27.0009
2023-05-22T13:19:59.151Z,27.0999
2023-05-22T13:21:01.182Z,27.0605
2023-05-22T13:22:03.319Z,27.1003
2023-05-22T13:23:05.375Z,27.1451
2023-05-22T13:24:07.516Z,27.1385
2023-05-22T13:25:09.420Z,27.1954
2023-05-22T13:26:11.441Z,27.2213
2023-05-22T13:27:13.534Z,27.1400
2023-05-22T13:28:15.614Z,27.1317
2023-05-22T13:29:17.667Z,27.2172
2023-05-22T13:30:19.701Z,27.3244
2023-05-22T13:31:21.787Z,27.3203
2023-05-22T13:32:23.804Z,27.3583
2023-05-22T13:33:25.850Z,27.4242
2023-05-22T13:34:27.973Z,27.5397
2023-05-22T13:35:30.263Z,27.6371
2023-05-22T13:36:31.994Z,27.7428
2023-05-22T13:37:34.022Z,27.6917
2023-05-22T13:38:36.058Z,27.6453
2023-05-22T13:39:38.603Z,27.6227
2023-05-22T13:40:40.357Z,27.6397
2023-05-22T13:41:42.223Z,27.6841
2023-05-22T13:42:44.335Z,27.7221
2023-05-22T13:43:46.322Z,27.7289
2023-05-22T13:44:48.431Z,27.7194
2023-05-22T13:45:50.469Z,27.6718
2023-05-22T13:46:52.463Z,27.6648
2023-05-22T13:47:54.590Z,27.5272
2023-05-22T13:48:56.774Z,27.6395
2023-05-22T13:49:58.703Z,27.7437
2023-05-22T13:51:00.782Z,27.8525
2023-05-22T13:52:02.724Z,27.8032
2023-05-22T13:53:04.768Z,27.6765
2023-05-22T13:54:06.840Z,27.6188
2023-05-22T13:55:08.868Z,27.5945
2023-05-22T13:56:10.954Z,27.5771
2023-05-22T13:57:12.983Z,27.5247
2023-05-22T13:58:15.119Z,27.5343
2023-05-22T13:59:17.089Z,27.4750
2023-05-22T14:00:19.139Z,27.4197
2023-05-22T14:01:21.332Z,27.4351
2023-05-22T14:02:23.326Z,27.4382
2023-05-22T14:03:25.321Z,27.3743
2023-05-22T14:04:27.319Z,27.3183
2023-05-22T14:05:29.450Z,27.3156
2023-05-22T14:06:31.503Z,27.2745
2023-05-22T14:07:33.512Z,27.3370
2023-05-22T14:08:35.566Z,27.2484
2023-05-22T14:09:37.626Z,27.1888
2023-05-22T14:10:39.711Z,27.1979
2023-05-22T14:11:41.723Z,27.2077
2023-05-22T14:12:43.792Z,27.1601
2023-05-22T14:13:45.791Z,27.1128
2023-05-22T14:14:47.889Z,27.0393
2023-05-22T14:15:49.934Z,27.0504
2023-05-22T14:16:51.988Z,27.0274
2023-05-22T14:17:54.044Z,26.9641
2023-05-22T14:18:56.101Z,26.9362
2023-05-22T14:19:58.181Z,26.9625
2023-05-22T14:21:01.027Z,26.9306
2023-05-22T14:22:02.261Z,26.9177
2023-05-22T14:23:04.232Z,26.8783
2023-05-22T14:24:06.403Z,26.8762
2023-05-22T14:25:08.360Z,26.8177
2023-05-22T14:26:11.827Z,26.8074
2023-05-22T14:27:12.451Z,26.7920
2023-05-22T14:28:14.506Z,26.7986
2023-05-22T14:29:16.599Z,26.7667
2023-05-22T14:30:18.620Z,26.6552
2023-05-22T14:31:20.822Z,26.6336
2023-05-22T14:32:22.757Z,26.6840
2023-05-22T14:33:24.755Z,26.6381
2023-05-22T14:34:26.807Z,26.6264
2023-05-22T14:35:28.868Z,26.5554
2023-05-22T14:36:30.952Z,26.5034
2023-05-22T14:37:32.939Z,26.4960
2023-05-22T14:38:35.135Z,26.4475
2023-05-22T14:39:37.063Z,26.5022
2023-05-22T14:40:39.079Z,26.6381
2023-05-22T14:41:41.171Z,26.4989
2023-05-22T14:42:43.196Z,26.4707
2023-05-22T14:43:45.329Z,26.5593
2023-05-22T14:44:47.357Z,26.5936
2023-05-22T14:45:49.597Z,26.6244
2023-05-22T14:46:51.479Z,26.5291
2023-05-22T14:47:53.508Z,26.5796
2023-05-22T14:48:55.547Z,26.5792
2023-05-22T14:50:03.111Z,26.5052
2023-05-22T14:50:59.631Z,26.5324
2023-05-22T14:52:01.786Z,26.5358
2023-05-22T14:53:03.711Z,26.4662
2023-05-22T14:54:05.856Z,26.4711
2023-05-22T14:55:07.881Z,26.4615
2023-05-22T14:56:09.886Z,26.4902
2023-05-22T14:57:11.945Z,26.5034
2023-05-22T14:58:14.011Z,26.5539
2023-05-22T14:59:16.066Z,26.5928
2023-05-22T15:00:18.119Z,26.5496
2023-05-22T15:01:20.166Z,26.5139
2023-05-22T15:02:24.747Z,26.5363
2023-05-22T15:03:24.233Z,26.5864
2023-05-22T15:04:26.301Z,26.5724
2023-05-22T15:05:28.327Z,26.6657
2023-05-22T15:06:30.575Z,26.5932
2023-05-22T15:07:43.297Z,26.4598
2023-05-22T15:08:34.534Z,26.4520
2023-05-22T15:09:36.626Z,26.5827
2023-05-22T15:10:38.624Z,26.6718
2023-05-22T15:11:40.656Z,26.7281
2023-05-22T15:12:42.715Z,26.7846
2023-05-22T15:13:44.744Z,26.7858
2023-05-22T15:14:46.834Z,26.7283
2023-05-22T15:15:48.875Z,26.6953
2023-05-22T15:16:50.988Z,26.7146
2023-05-22T15:17:52.989Z,26.7234
2023-05-22T15:18:55.064Z,26.7174
2023-05-22T15:19:57.099Z,26.7298
2023-05-22T15:20:59.130Z,26.7174
2023-05-22T15:22:18.191Z,26.6601
2023-05-22T15:23:03.278Z,26.6431
2023-05-22T15:24:05.311Z,26.6330
2023-05-22T15:25:07.346Z,26.5722
2023-05-22T15:26:09.369Z,26.6835
2023-05-22T15:27:11.450Z,26.6729
2023-05-22T15:28:13.499Z,26.6725
2023-05-22T15:29:15.568Z,26.6591
2023-05-22T15:30:18.178Z,26.6049
2023-05-22T15:31:19.665Z,26.6047
2023-05-22T15:32:21.684Z,26.5743
2023-05-22T15:33:24.648Z,26.5739
2023-05-22T15:34:25.879Z,26.5636
2023-05-22T15:35:27.869Z,26.6016
2023-05-22T15:36:29.899Z,26.5003
2023-05-22T15:37:32.567Z,26.4247
2023-05-22T15:38:34.059Z,26.3826
2023-05-22T15:39:36.054Z,26.3194
2023-05-22T15:40:38.190Z,26.3602
2023-05-22T15:41:40.208Z,26.3884
2023-05-22T15:42:42.214Z,26.3954
2023-05-22T15:43:44.387Z,26.3600
2023-05-22T15:44:46.330Z,26.3643
2023-05-22T15:45:48.475Z,26.3454
2023-05-22T15:46:50.482Z,26.3140
2023-05-22T15:47:52.496Z,26.1692
2023-05-22T15:48:54.546Z,26.1480
2023-05-22T15:49:56.625Z,26.1805
2023-05-22T15:50:58.740Z,26.1924
2023-05-22T15:52:00.697Z,26.1439
2023-05-22T15:53:02.737Z,26.0687
2023-05-22T15:54:04.840Z,26.0922
2023-05-22T15:55:06.866Z,26.0731
2023-05-22T15:56:08.925Z,26.0928
2023-05-22T15:57:10.955Z,26.1415
2023-05-22T15:58:13.068Z,26.1926
2023-05-22T15:59:15.066Z,26.1277
2023-05-22T16:00:18.538Z,26.1394
2023-05-22T16:01:19.172Z,26.1714
2023-05-22T16:02:21.279Z,26.1345
2023-05-22T16:03:23.337Z,26.0359
2023-05-22T16:04:25.324Z,25.9915
2023-05-22T16:05:27.394Z,25.9718
2023-05-22T16:06:29.418Z,26.0170
2023-05-22T16:07:31.474Z,25.9862
2023-05-22T16:08:33.575Z,25.9537
2023-05-22T16:09:35.664Z,25.9847
2023-05-22T16:10:37.690Z,25.9609
2023-05-22T16:11:39.705Z,25.8952
2023-05-22T16:12:41.749Z,25.9562
2023-05-22T16:13:43.815Z,26.0203
2023-05-22T16:14:45.852Z,26.1037
2023-05-22T16:15:47.956Z,26.1228
2023-05-22T16:16:49.939Z,25.9925
2023-05-22T16:17:52.042Z,25.9408
2023-05-22T16:18:54.281Z,25.9582
2023-05-22T16:19:56.124Z,26.0133
2023-05-22T16:20:58.179Z,25.9679
2023-05-22T16:22:00.253Z,25.9784
2023-05-22T16:23:02.269Z,25.9558
2023-05-22T16:24:04.314Z,25.9455
2023-05-22T16:25:06.433Z,26.0034
2023-05-22T16:26:08.443Z,26.0772
2023-05-22T16:27:10.799Z,25.9954
2023-05-22T16:28:12.500Z,26.0716
2023-05-22T16:29:14.576Z,26.1016
2023-05-22T16:30:16.831Z,25.9702
2023-05-22T16:31:19.538Z,25.9952
2023-05-22T16:32:20.786Z,25.9775
2023-05-22T16:33:22.798Z,26.0231
2023-05-22T16:34:24.833Z,26.1271
2023-05-22T16:35:27.026Z,26.0669
2023-05-22T16:36:28.950Z,26.0952
2023-05-22T16:37:31.019Z,26.0657
2023-05-22T16:38:33.037Z,26.0965
2023-05-22T16:39:35.103Z,26.1538
2023-05-22T16:40:37.188Z,26.1589
2023-05-22T16:41:39.253Z,26.1548
2023-05-22T16:42:41.265Z,26.2183
2023-05-22T16:43:43.409Z,26.2158
2023-05-22T16:44:45.414Z,26.1661
2023-05-22T16:45:47.518Z,26.1507
2023-05-22T16:46:49.543Z,26.1201
2023-05-22T16:47:53.497Z,26.2119
2023-05-22T16:48:53.729Z,26.1799
2023-05-22T16:49:55.697Z,26.1667
2023-05-22T16:50:58.028Z,26.1992
2023-05-22T16:51:59.776Z,26.1491
2023-05-22T16:53:01.856Z,26.1585
2023-05-22T16:54:03.872Z,26.1271
2023-05-22T16:55:05.906Z,26.1848
2023-05-22T16:56:08.036Z,26.2062
2023-05-22T16:57:10.080Z,26.2181
2023-05-22T16:58:12.117Z,26.1840
2023-05-22T16:59:14.143Z,26.1456
2023-05-22T17:00:16.194Z,26.1591
2023-05-22T17:01:18.280Z,26.1678